| time (UTC) | temp C | wind direction | speed KPH | gust KPH | rain 1hr cm | rain 24hr cm | rain mn cm | humidity % | barometer mb |
| 20260505123823 | 18 | 90 | 0.0 | 4.8 | 0.00 | 0.00 | 0.00 | 66 | 1008.1 |
| 20260505122323 | 17 | 89 | 1.6 | 1.6 | 0.00 | 0.00 | 0.00 | 76 | 1008.4 |
| 20260505120823 | 15 | 359 | 0.0 | 1.6 | 0.00 | 0.00 | 0.00 | 85 | 1008.6 |
| 20260505115323 | 10 | 205 | 3.2 | 3.2 | 0.00 | 0.00 | 0.00 | 92 | 1008.8 |
| 20260505113823 | 10 | 205 | 3.2 | 3.2 | 0.00 | 0.00 | 0.00 | 92 | 1008.7 |
| 20260505112323 | 10 | 205 | 3.2 | 3.2 | 0.00 | 0.00 | 0.00 | 92 | 1008.6 |
| 20260505110823 | 10 | 205 | 3.2 | 3.2 | 0.00 | 0.00 | 0.00 | 92 | 1008.5 |
| 20260505100823 | 10 | 205 | 3.2 | 3.2 | 0.00 | 0.00 | 0.00 | 92 | 1008.3 |
| 20260505095323 | 10 | 205 | 3.2 | 3.2 | 0.00 | 0.00 | 0.00 | 92 | 1008.2 |
| 20260505093823 | 10 | 205 | 3.2 | 3.2 | 0.00 | 0.00 | 0.00 | 92 | 1008.3 |
| 20260505092323 | 10 | 210 | 3.2 | 3.2 | 0.00 | 0.00 | 0.00 | 92 | 1008.4 |
| 20260505090824 | 11 | 4 | 0.0 | 3.2 | 0.00 | 0.00 | 0.00 | 92 | 1008.1 |
| 20260505085323 | 11 | 241 | 1.6 | 4.8 | 0.00 | 0.00 | 0.00 | 93 | 1007.6 |
| 20260505083824 | 10 | 269 | 0.0 | 4.8 | 0.00 | 0.00 | 0.00 | 94 | 1007.7 |
| 20260505082324 | 9 | 10 | 1.6 | 3.2 | 0.00 | 0.00 | 0.00 | 94 | 1007.7 |
| 20260505080824 | 8 | 236 | 1.6 | 1.6 | 0.00 | 0.00 | 0.00 | 93 | 1007.6 |
| 20260505075324 | 9 | 228 | 0.0 | 1.6 | 0.00 | 0.00 | 0.00 | 93 | 1007.7 |
| 20260505073824 | 9 | 228 | 1.6 | 3.2 | 0.00 | 0.00 | 0.00 | 93 | 1007.6 |
| 20260505072324 | 9 | 221 | 0.0 | 1.6 | 0.00 | 0.00 | 0.00 | 92 | 1007.4 |
| 20260505070824 | 9 | 221 | 0.0 | 0.0 | 0.00 | 0.00 | 0.00 | 92 | 1007.2 |
| 20260505065324 | 10 | 221 | 0.0 | 1.6 | 0.00 | 0.00 | 0.00 | 91 | 1007.1 |
| 20260505063824 | 10 | 226 | 0.0 | 0.0 | 0.00 | 0.00 | 0.00 | 91 | 1007.3 |
| 20260505062324 | 10 | 330 | 0.0 | 1.6 | 0.00 | 0.00 | 0.00 | 91 | 1007.4 |
| 20260505060824 | 10 | 330 | 0.0 | 1.6 | 0.00 | 0.00 | 0.00 | 90 | 1007.5 |
| 20260505055324 | 10 | 330 | 0.0 | 0.0 | 0.00 | 0.00 | 0.00 | 89 | 1007.6 |
| 20260505053824 | 11 | 330 | 0.0 | 0.0 | 0.00 | 0.00 | 0.00 | 87 | 1007.7 |
| 20260505052324 | 11 | 330 | 0.0 | 0.0 | 0.00 | 0.00 | 0.00 | 87 | 1007.7 |
| 20260505050824 | 11 | 330 | 0.0 | 1.6 | 0.00 | 0.00 | 0.00 | 86 | 1007.7 |
| 20260505040824 | 12 | 330 | 0.0 | 1.6 | 0.00 | 0.00 | 0.00 | 82 | 1007.5 |
| 20260505035324 | 12 | 330 | 0.0 | 1.6 | 0.00 | 0.00 | 0.00 | 83 | 1007.4 |
| 20260505033824 | 12 | 213 | 1.6 | 1.6 | 0.00 | 0.00 | 0.00 | 81 | 1007.4 |
| 20260505032324 | 12 | 213 | 0.0 | 0.0 | 0.00 | 0.00 | 0.00 | 80 | 1007.3 |
| 20260505030824 | 12 | 213 | 0.0 | 0.0 | 0.00 | 0.00 | 0.00 | 79 | 1007.4 |
| 20260505025324 | 13 | 213 | 0.0 | 0.0 | 0.00 | 0.00 | 0.00 | 79 | 1007.5 |
| 20260505023824 | 13 | 213 | 0.0 | 1.6 | 0.00 | 0.00 | 0.00 | 78 | 1007.3 |
| 20260505022324 | 13 | 213 | 0.0 | 1.6 | 0.00 | 0.00 | 0.00 | 77 | 1007.3 |
| 20260505020824 | 13 | 213 | 0.0 | 1.6 | 0.00 | 0.00 | 0.00 | 75 | 1007.4 |
| 20260505015324 | 14 | 245 | 0.0 | 1.6 | 0.00 | 0.00 | 0.00 | 72 | 1007.3 |
| 20260505013824 | 15 | 245 | 0.0 | 3.2 | 0.00 | 0.00 | 0.00 | 68 | 1007.2 |
| 20260505012324 | 16 | 230 | 1.6 | 4.8 | 0.00 | 0.00 | 0.00 | 65 | 1006.8 |
| 20260505010824 | 17 | 215 | 0.0 | 3.2 | 0.00 | 0.00 | 0.00 | 60 | 1006.6 |
| 20260505005324 | 17 | 231 | 1.6 | 3.2 | 0.00 | 0.00 | 0.00 | 58 | 1006.7 |
| 20260505003824 | 19 | 224 | 1.6 | 3.2 | 0.00 | 0.00 | 0.00 | 51 | 1006.5 |
| 20260505002325 | 21 | 221 | 0.0 | 3.2 | 0.00 | 0.00 | 0.00 | 45 | 1006.4 |
| 20260505000825 | 22 | 217 | 3.2 | 4.8 | 0.00 | 0.00 | 0.00 | 42 | 1006.4 |
| 20260504235325 | 22 | 279 | 3.2 | 8.0 | 0.00 | 0.00 | 0.00 | 41 | 1006.1 |
| 20260504233825 | 22 | 333 | 3.2 | 9.7 | 0.00 | 0.00 | 0.00 | 41 | 1005.8 |
| 20260504232325 | 23 | 165 | 1.6 | 8.0 | 0.00 | 0.00 | 0.00 | 40 | 1005.7 |
| 20260504230825 | 23 | 219 | 0.0 | 12.9 | 0.00 | 0.00 | 0.00 | 40 | 1005.6 |
| 20260504225325 | 23 | 150 | 3.2 | 14.5 | 0.00 | 0.00 | 0.00 | 39 | 1005.5 |
| 20260504223825 | 23 | 142 | 8.0 | 19.3 | 0.00 | 0.00 | 0.00 | 39 | 1005.7 |
| 20260504222325 | 23 | 269 | 1.6 | 16.1 | 0.00 | 0.00 | 0.00 | 38 | 1005.8 |
| 20260504220825 | 24 | 57 | 6.4 | 25.7 | 0.00 | 0.00 | 0.00 | 37 | 1005.7 |
| 20260504215325 | 24 | 84 | 4.8 | 24.1 | 0.00 | 0.00 | 0.00 | 36 | 1005.7 |
| 20260504213825 | 24 | 354 | 6.4 | 24.1 | 0.00 | 0.00 | 0.00 | 35 | 1005.8 |
| 20260504212325 | 24 | 122 | 8.0 | 16.1 | 0.00 | 0.00 | 0.00 | 35 | 1005.7 |
| 20260504210825 | 24 | 169 | 8.0 | 16.1 | 0.00 | 0.00 | 0.00 | 35 | 1005.8 |
| 20260504205325 | 24 | 311 | 3.2 | 19.3 | 0.00 | 0.00 | 0.00 | 34 | 1005.8 |
| 20260504203825 | 24 | 271 | 8.0 | 24.1 | 0.00 | 0.00 | 0.00 | 33 | 1006.0 |
| 20260504202325 | 24 | 273 | 6.4 | 17.7 | 0.00 | 0.00 | 0.00 | 32 | 1006.1 |
| 20260504200825 | 24 | 185 | 17.7 | 38.6 | 0.00 | 0.00 | 0.00 | 32 | 1006.2 |
| 20260504195325 | 23 | 284 | 3.2 | 20.9 | 0.00 | 0.00 | 0.00 | 34 | 1006.6 |
| 20260504193825 | 23 | 174 | 6.4 | 19.3 | 0.00 | 0.00 | 0.00 | 33 | 1006.7 |
| 20260504192325 | 24 | 201 | 4.8 | 24.1 | 0.00 | 0.00 | 0.00 | 33 | 1007.0 |
| 20260504190825 | 24 | 233 | 9.7 | 25.7 | 0.00 | 0.00 | 0.00 | 32 | 1007.1 |
| 20260504185325 | 24 | 173 | 6.4 | 19.3 | 0.00 | 0.00 | 0.00 | 32 | 1007.4 |
| 20260504183825 | 23 | 205 | 0.0 | 22.5 | 0.00 | 0.00 | 0.00 | 33 | 1007.5 |
| 20260504182325 | 23 | 182 | 11.3 | 17.7 | 0.00 | 0.00 | 0.00 | 33 | 1007.8 |
| 20260504180825 | 23 | 246 | 9.7 | 29.0 | 0.00 | 0.00 | 0.00 | 35 | 1008.2 |
| 20260504175326 | 23 | 185 | 8.0 | 20.9 | 0.00 | 0.00 | 0.00 | 35 | 1008.4 |
| 20260504173825 | 22 | 153 | 9.7 | 33.8 | 0.00 | 0.00 | 0.00 | 34 | 1008.7 |
| 20260504172325 | 22 | 202 | 24.1 | 32.2 | 0.00 | 0.00 | 0.00 | 36 | 1008.8 |
| 20260504170825 | 22 | 239 | 12.9 | 22.5 | 0.00 | 0.00 | 0.00 | 36 | 1009.1 |
| 20260504150826 | 19 | 248 | 0.0 | 19.3 | 0.00 | 0.00 | 0.00 | 40 | 1011.0 |
| 20260504140826 | 17 | 205 | 6.4 | 16.1 | 0.00 | 0.00 | 0.00 | 43 | 1011.5 |